Time,TemperatureF,DewpointF,PressureIn,WindDirection,WindDirectionDegrees,WindSpeedMPH,WindSpeedGustMPH,Humidity,HourlyPrecipIn,Conditions,Clouds,dailyrainin,SolarRadiationWatts/m^2,SoftwareType,DateUTC
2013-03-04 00:50:00,29.0,27.0,29.93,North,352,4.0,5.0,90,-99.99,,,-99.99,0.000000,,2013-03-04 08:50:00,
2013-03-04 01:50:00,32.0,29.0,29.96,NNE,12,3.0,5.0,90,-99.99,,,-99.99,0.000000,,2013-03-04 09:50:00,
2013-03-04 02:50:00,31.0,28.0,29.95,North,3,2.0,3.0,88,-99.99,,,-99.99,0.000000,,2013-03-04 10:50:00,
2013-03-04 03:50:00,28.0,24.0,29.96,North,359,3.0,4.0,85,-99.99,,,-99.99,0.000000,,2013-03-04 11:50:00,
2013-03-04 04:50:00,29.0,25.0,29.98,North,358,4.0,5.0,86,-99.99,,,-99.99,0.000000,,2013-03-04 12:50:00,
2013-03-04 05:50:00,28.0,23.0,30.01,NNW,344,2.0,4.0,81,-99.99,,,-99.99,0.000000,,2013-03-04 13:50:00,
2013-03-04 06:50:00,29.0,24.0,30.03,NNW,334,3.0,5.0,81,-99.99,,,-99.99,40.000000,,2013-03-04 14:50:00,
2013-03-04 07:50:00,32.0,23.0,30.05,NNW,346,8.0,13.0,69,-99.99,,,-99.99,280.000000,,2013-03-04 15:50:00,
2013-03-04 08:50:00,36.0,21.0,30.05,NNW,348,6.0,11.0,55,-99.99,,,-99.99,490.000000,,2013-03-04 16:50:00,
2013-03-04 09:50:00,38.0,18.0,30.07,North,360,8.0,13.0,44,-99.99,,,-99.99,650.000000,,2013-03-04 17:50:00,
2013-03-04 10:50:00,40.0,17.0,30.07,North,7,9.0,14.0,40,-99.99,,,-99.99,750.000000,,2013-03-04 18:50:00,
2013-03-04 11:50:00,41.0,18.0,30.07,North,359,8.0,16.0,38,-99.99,,,-99.99,790.000000,,2013-03-04 19:50:00,
2013-03-04 12:50:00,43.0,17.0,30.06,North,352,8.0,15.0,34,-99.99,,,-99.99,750.000000,,2013-03-04 20:50:00,
2013-03-04 13:50:00,44.0,17.0,30.06,North,354,6.0,13.0,34,-99.99,,,-99.99,660.000000,,2013-03-04 21:50:00,
2013-03-04 15:50:00,44.0,17.0,30.08,NNW,336,6.0,9.0,34,-99.99,,,-99.99,320.000000,,2013-03-04 23:50:00,
2013-03-04 16:50:00,42.0,18.0,30.09,North,352,4.0,7.0,37,-99.99,,,-99.99,120.000000,,2013-03-05 00:50:00,
2013-03-04 17:50:00,31.0,20.0,30.11,North,7,2.0,3.0,63,-99.99,,,-99.99,0.000000,,2013-03-05 01:50:00,
2013-03-04 18:50:00,27.0,21.0,30.12,South,173,3.0,4.0,77,-99.99,,,-99.99,0.000000,,2013-03-05 02:50:00,
2013-03-04 19:50:00,24.0,19.0,30.13,South,185,1.0,3.0,79,-99.99,,,-99.99,0.000000,,2013-03-05 03:50:00,
2013-03-04 20:50:00,24.0,18.0,30.13,South,179,4.0,7.0,78,-99.99,,,-99.99,0.000000,,2013-03-05 04:50:00,
2013-03-04 22:50:00,23.0,20.0,30.14,South,171,6.0,9.0,88,-99.99,,,-99.99,0.000000,,2013-03-05 06:50:00,
2013-03-04 23:50:00,23.0,19.0,30.13,South,188,6.0,9.0,85,-99.99,,,-99.99,0.000000,,2013-03-05 07:50:00,